sensor_id;sensor_type;location;lat;lon;timestamp;P1;durP1;ratioP1;P2;durP2;ratioP2
14754;SDS011;7469;50.906;6.952;2023-06-14T00:00:15;7.53;;;4.60;;
14754;SDS011;7469;50.906;6.952;2023-06-14T00:02:44;6.60;;;4.47;;
14754;SDS011;7469;50.906;6.952;2023-06-14T00:05:12;7.33;;;4.63;;
14754;SDS011;7469;50.906;6.952;2023-06-14T00:07:41;5.03;;;4.33;;
14754;SDS011;7469;50.906;6.952;2023-06-14T00:10:10;4.83;;;4.43;;
14754;SDS011;7469;50.906;6.952;2023-06-14T00:12:39;6.77;;;4.37;;
14754;SDS011;7469;50.906;6.952;2023-06-14T00:15:08;7.27;;;5.00;;
14754;SDS011;7469;50.906;6.952;2023-06-14T00:17:36;5.93;;;4.60;;
14754;SDS011;7469;50.906;6.952;2023-06-14T00:20:05;5.27;;;4.77;;
14754;SDS011;7469;50.906;6.952;2023-06-14T00:22:34;8.23;;;4.53;;
14754;SDS011;7469;50.906;6.952;2023-06-14T00:25:03;5.17;;;4.67;;
14754;SDS011;7469;50.906;6.952;2023-06-14T00:27:51;5.73;;;4.37;;
14754;SDS011;7469;50.906;6.952;2023-06-14T00:30:21;6.50;;;4.80;;
14754;SDS011;7469;50.906;6.952;2023-06-14T00:32:49;4.97;;;4.20;;
14754;SDS011;7469;50.906;6.952;2023-06-14T00:35:18;6.27;;;4.63;;
14754;SDS011;7469;50.906;6.952;2023-06-14T00:37:46;5.70;;;5.13;;
14754;SDS011;7469;50.906;6.952;2023-06-14T00:40:14;7.77;;;4.90;;
14754;SDS011;7469;50.906;6.952;2023-06-14T00:42:42;5.07;;;4.67;;
14754;SDS011;7469;50.906;6.952;2023-06-14T00:45:10;5.40;;;4.90;;
14754;SDS011;7469;50.906;6.952;2023-06-14T00:47:40;8.37;;;5.07;;
14754;SDS011;7469;50.906;6.952;2023-06-14T00:50:10;5.63;;;4.87;;
14754;SDS011;7469;50.906;6.952;2023-06-14T00:52:39;7.97;;;5.03;;
14754;SDS011;7469;50.906;6.952;2023-06-14T00:55:07;6.67;;;5.40;;
14754;SDS011;7469;50.906;6.952;2023-06-14T00:57:36;10.97;;;4.97;;
14754;SDS011;7469;50.906;6.952;2023-06-14T01:00:06;7.37;;;5.10;;
14754;SDS011;7469;50.906;6.952;2023-06-14T01:02:36;7.03;;;4.77;;
14754;SDS011;7469;50.906;6.952;2023-06-14T01:05:07;6.07;;;5.37;;
14754;SDS011;7469;50.906;6.952;2023-06-14T01:07:41;8.60;;;5.20;;
14754;SDS011;7469;50.906;6.952;2023-06-14T01:10:21;5.30;;;4.80;;
14754;SDS011;7469;50.906;6.952;2023-06-14T01:13:05;7.17;;;4.57;;
14754;SDS011;7469;50.906;6.952;2023-06-14T01:15:40;5.27;;;4.77;;
14754;SDS011;7469;50.906;6.952;2023-06-14T01:18:10;6.53;;;5.13;;
14754;SDS011;7469;50.906;6.952;2023-06-14T01:20:45;8.43;;;4.53;;
14754;SDS011;7469;50.906;6.952;2023-06-14T01:23:17;6.80;;;5.30;;
14754;SDS011;7469;50.906;6.952;2023-06-14T01:25:46;7.03;;;5.30;;
14754;SDS011;7469;50.906;6.952;2023-06-14T01:28:19;7.30;;;5.40;;
14754;SDS011;7469;50.906;6.952;2023-06-14T01:30:49;6.77;;;4.63;;
14754;SDS011;7469;50.906;6.952;2023-06-14T01:33:20;11.57;;;4.53;;
14754;SDS011;7469;50.906;6.952;2023-06-14T01:35:50;5.37;;;4.87;;
14754;SDS011;7469;50.906;6.952;2023-06-14T01:38:21;5.87;;;4.80;;
14754;SDS011;7469;50.906;6.952;2023-06-14T01:40:51;7.10;;;4.60;;
14754;SDS011;7469;50.906;6.952;2023-06-14T01:43:21;6.60;;;4.43;;
14754;SDS011;7469;50.906;6.952;2023-06-14T01:45:51;6.47;;;5.50;;
14754;SDS011;7469;50.906;6.952;2023-06-14T01:48:20;5.13;;;4.63;;
14754;SDS011;7469;50.906;6.952;2023-06-14T01:50:49;5.67;;;5.07;;
14754;SDS011;7469;50.906;6.952;2023-06-14T01:53:17;5.63;;;5.13;;
14754;SDS011;7469;50.906;6.952;2023-06-14T01:55:46;6.47;;;5.20;;
14754;SDS011;7469;50.906;6.952;2023-06-14T01:58:15;6.00;;;5.00;;
14754;SDS011;7469;50.906;6.952;2023-06-14T02:00:43;6.97;;;5.00;;
14754;SDS011;7469;50.906;6.952;2023-06-14T02:03:13;7.90;;;5.40;;
14754;SDS011;7469;50.906;6.952;2023-06-14T02:05:41;8.17;;;5.77;;
14754;SDS011;7469;50.906;6.952;2023-06-14T02:08:09;6.87;;;5.10;;
14754;SDS011;7469;50.906;6.952;2023-06-14T02:10:37;5.87;;;5.27;;
14754;SDS011;7469;50.906;6.952;2023-06-14T02:13:07;5.33;;;4.83;;
14754;SDS011;7469;50.906;6.952;2023-06-14T02:15:34;5.83;;;5.23;;
14754;SDS011;7469;50.906;6.952;2023-06-14T02:18:03;6.50;;;5.43;;
14754;SDS011;7469;50.906;6.952;2023-06-14T02:20:31;7.60;;;5.10;;
14754;SDS011;7469;50.906;6.952;2023-06-14T02:22:59;7.37;;;5.87;;
14754;SDS011;7469;50.906;6.952;2023-06-14T02:25:27;6.03;;;5.43;;
14754;SDS011;7469;50.906;6.952;2023-06-14T02:27:55;5.47;;;4.97;;
14754;SDS011;7469;50.906;6.952;2023-06-14T02:30:25;6.53;;;5.10;;
14754;SDS011;7469;50.906;6.952;2023-06-14T02:32:53;7.77;;;5.20;;
14754;SDS011;7469;50.906;6.952;2023-06-14T02:35:21;7.97;;;4.90;;
14754;SDS011;7469;50.906;6.952;2023-06-14T02:37:52;5.33;;;4.83;;
14754;SDS011;7469;50.906;6.952;2023-06-14T02:40:20;5.60;;;5.10;;
14754;SDS011;7469;50.906;6.952;2023-06-14T02:42:48;8.23;;;5.00;;
14754;SDS011;7469;50.906;6.952;2023-06-14T02:45:16;6.60;;;5.30;;
14754;SDS011;7469;50.906;6.952;2023-06-14T02:47:46;8.13;;;5.20;;
14754;SDS011;7469;50.906;6.952;2023-06-14T02:50:14;7.20;;;5.13;;
14754;SDS011;7469;50.906;6.952;2023-06-14T02:52:43;6.30;;;5.70;;
14754;SDS011;7469;50.906;6.952;2023-06-14T02:55:11;6.37;;;5.63;;
14754;SDS011;7469;50.906;6.952;2023-06-14T02:57:39;8.10;;;5.00;;
14754;SDS011;7469;50.906;6.952;2023-06-14T03:00:08;7.17;;;5.70;;
14754;SDS011;7469;50.906;6.952;2023-06-14T03:02:40;6.10;;;5.23;;
14754;SDS011;7469;50.906;6.952;2023-06-14T03:05:10;5.80;;;5.20;;
14754;SDS011;7469;50.906;6.952;2023-06-14T03:07:39;5.97;;;4.77;;
14754;SDS011;7469;50.906;6.952;2023-06-14T03:10:07;5.80;;;5.20;;
14754;SDS011;7469;50.906;6.952;2023-06-14T03:12:36;6.83;;;5.13;;
14754;SDS011;7469;50.906;6.952;2023-06-14T03:15:04;6.50;;;5.33;;
14754;SDS011;7469;50.906;6.952;2023-06-14T03:17:33;7.93;;;5.17;;
14754;SDS011;7469;50.906;6.952;2023-06-14T03:20:01;9.47;;;5.67;;
14754;SDS011;7469;50.906;6.952;2023-06-14T03:22:33;5.97;;;5.37;;
14754;SDS011;7469;50.906;6.952;2023-06-14T03:25:01;8.73;;;5.60;;
14754;SDS011;7469;50.906;6.952;2023-06-14T03:27:31;6.17;;;5.57;;
14754;SDS011;7469;50.906;6.952;2023-06-14T03:29:59;7.00;;;5.17;;
14754;SDS011;7469;50.906;6.952;2023-06-14T03:32:27;6.43;;;5.83;;
14754;SDS011;7469;50.906;6.952;2023-06-14T03:34:59;5.80;;;5.20;;
14754;SDS011;7469;50.906;6.952;2023-06-14T03:37:27;9.73;;;5.13;;
14754;SDS011;7469;50.906;6.952;2023-06-14T03:39:56;6.63;;;5.70;;
14754;SDS011;7469;50.906;6.952;2023-06-14T03:42:24;12.30;;;5.90;;
14754;SDS011;7469;50.906;6.952;2023-06-14T03:44:52;6.93;;;5.90;;
14754;SDS011;7469;50.906;6.952;2023-06-14T03:47:20;6.07;;;5.40;;
14754;SDS011;7469;50.906;6.952;2023-06-14T03:49:48;8.27;;;6.37;;
14754;SDS011;7469;50.906;6.952;2023-06-14T03:52:16;8.23;;;5.60;;
14754;SDS011;7469;50.906;6.952;2023-06-14T03:54:44;7.50;;;6.10;;
14754;SDS011;7469;50.906;6.952;2023-06-14T03:57:17;7.90;;;6.20;;
14754;SDS011;7469;50.906;6.952;2023-06-14T03:59:45;6.13;;;5.50;;
14754;SDS011;7469;50.906;6.952;2023-06-14T04:02:13;7.07;;;5.77;;
14754;SDS011;7469;50.906;6.952;2023-06-14T04:04:42;6.20;;;5.60;;
14754;SDS011;7469;50.906;6.952;2023-06-14T04:07:11;7.20;;;5.93;;
14754;SDS011;7469;50.906;6.952;2023-06-14T04:09:40;8.13;;;6.13;;
14754;SDS011;7469;50.906;6.952;2023-06-14T04:12:08;8.47;;;6.23;;
14754;SDS011;7469;50.906;6.952;2023-06-14T04:14:39;11.57;;;6.30;;
14754;SDS011;7469;50.906;6.952;2023-06-14T04:17:07;8.97;;;6.30;;
14754;SDS011;7469;50.906;6.952;2023-06-14T04:19:35;9.63;;;5.83;;
14754;SDS011;7469;50.906;6.952;2023-06-14T04:22:04;6.60;;;5.90;;
14754;SDS011;7469;50.906;6.952;2023-06-14T04:24:32;10.07;;;6.67;;
14754;SDS011;7469;50.906;6.952;2023-06-14T04:27:01;11.77;;;5.73;;
14754;SDS011;7469;50.906;6.952;2023-06-14T04:29:29;7.50;;;6.60;;
14754;SDS011;7469;50.906;6.952;2023-06-14T04:31:59;10.37;;;6.20;;
14754;SDS011;7469;50.906;6.952;2023-06-14T04:34:28;7.50;;;6.70;;
14754;SDS011;7469;50.906;6.952;2023-06-14T04:36:58;6.53;;;5.93;;
14754;SDS011;7469;50.906;6.952;2023-06-14T04:39:27;7.50;;;6.37;;
14754;SDS011;7469;50.906;6.952;2023-06-14T04:41:55;7.13;;;5.97;;
14754;SDS011;7469;50.906;6.952;2023-06-14T04:44:27;6.27;;;5.67;;
14754;SDS011;7469;50.906;6.952;2023-06-14T04:46:59;8.90;;;6.10;;
14754;SDS011;7469;50.906;6.952;2023-06-14T04:49:28;8.20;;;6.13;;
14754;SDS011;7469;50.906;6.952;2023-06-14T04:51:58;6.63;;;5.90;;
14754;SDS011;7469;50.906;6.952;2023-06-14T04:54:28;8.23;;;5.47;;
14754;SDS011;7469;50.906;6.952;2023-06-14T04:56:57;9.23;;;5.97;;
14754;SDS011;7469;50.906;6.952;2023-06-14T04:59:25;7.10;;;5.20;;
14754;SDS011;7469;50.906;6.952;2023-06-14T05:01:53;10.10;;;5.27;;
14754;SDS011;7469;50.906;6.952;2023-06-14T05:04:24;7.80;;;4.93;;
14754;SDS011;7469;50.906;6.952;2023-06-14T05:06:54;7.50;;;5.27;;
14754;SDS011;7469;50.906;6.952;2023-06-14T05:09:22;6.33;;;4.77;;
14754;SDS011;7469;50.906;6.952;2023-06-14T05:11:50;5.57;;;4.77;;
14754;SDS011;7469;50.906;6.952;2023-06-14T05:14:18;11.20;;;4.80;;
14754;SDS011;7469;50.906;6.952;2023-06-14T05:16:46;4.70;;;4.30;;
14754;SDS011;7469;50.906;6.952;2023-06-14T05:19:14;4.60;;;3.90;;
14754;SDS011;7469;50.906;6.952;2023-06-14T05:21:45;4.47;;;3.90;;
14754;SDS011;7469;50.906;6.952;2023-06-14T05:24:13;10.43;;;4.03;;
14754;SDS011;7469;50.906;6.952;2023-06-14T05:26:43;5.87;;;4.20;;
14754;SDS011;7469;50.906;6.952;2023-06-14T05:29:11;10.53;;;4.10;;
14754;SDS011;7469;50.906;6.952;2023-06-14T05:31:39;12.00;;;4.00;;
14754;SDS011;7469;50.906;6.952;2023-06-14T05:34:07;7.17;;;4.20;;
14754;SDS011;7469;50.906;6.952;2023-06-14T05:36:35;6.10;;;4.23;;
14754;SDS011;7469;50.906;6.952;2023-06-14T05:39:04;6.97;;;4.10;;
14754;SDS011;7469;50.906;6.952;2023-06-14T05:41:33;9.27;;;4.00;;
14754;SDS011;7469;50.906;6.952;2023-06-14T05:44:01;7.77;;;4.00;;
14754;SDS011;7469;50.906;6.952;2023-06-14T05:46:29;12.03;;;4.27;;
14754;SDS011;7469;50.906;6.952;2023-06-14T05:48:57;11.87;;;5.20;;
14754;SDS011;7469;50.906;6.952;2023-06-14T05:51:25;11.57;;;4.30;;
14754;SDS011;7469;50.906;6.952;2023-06-14T05:53:53;8.40;;;4.60;;
14754;SDS011;7469;50.906;6.952;2023-06-14T05:56:22;8.27;;;3.93;;
14754;SDS011;7469;50.906;6.952;2023-06-14T05:58:50;7.00;;;3.70;;
14754;SDS011;7469;50.906;6.952;2023-06-14T06:01:18;10.00;;;3.60;;
14754;SDS011;7469;50.906;6.952;2023-06-14T06:03:46;6.40;;;3.53;;
14754;SDS011;7469;50.906;6.952;2023-06-14T06:06:14;9.27;;;3.87;;
14754;SDS011;7469;50.906;6.952;2023-06-14T06:08:42;5.20;;;3.83;;
14754;SDS011;7469;50.906;6.952;2023-06-14T06:11:10;8.43;;;3.20;;
14754;SDS011;7469;50.906;6.952;2023-06-14T06:13:40;6.40;;;3.20;;
14754;SDS011;7469;50.906;6.952;2023-06-14T06:16:08;5.90;;;3.40;;
14754;SDS011;7469;50.906;6.952;2023-06-14T06:18:36;9.80;;;3.87;;
14754;SDS011;7469;50.906;6.952;2023-06-14T06:21:05;5.77;;;3.30;;
14754;SDS011;7469;50.906;6.952;2023-06-14T06:23:33;9.50;;;3.20;;
14754;SDS011;7469;50.906;6.952;2023-06-14T06:26:01;4.03;;;3.00;;
14754;SDS011;7469;50.906;6.952;2023-06-14T06:28:30;11.83;;;3.50;;
14754;SDS011;7469;50.906;6.952;2023-06-14T06:30:59;8.27;;;3.10;;
14754;SDS011;7469;50.906;6.952;2023-06-14T06:33:30;8.87;;;3.80;;
14754;SDS011;7469;50.906;6.952;2023-06-14T06:35:58;10.53;;;3.80;;
14754;SDS011;7469;50.906;6.952;2023-06-14T06:38:26;6.57;;;3.07;;
14754;SDS011;7469;50.906;6.952;2023-06-14T06:40:55;6.80;;;3.17;;
14754;SDS011;7469;50.906;6.952;2023-06-14T06:43:23;8.93;;;3.53;;
14754;SDS011;7469;50.906;6.952;2023-06-14T06:45:51;4.07;;;3.07;;
14754;SDS011;7469;50.906;6.952;2023-06-14T06:48:21;7.00;;;2.93;;
14754;SDS011;7469;50.906;6.952;2023-06-14T06:50:49;3.53;;;2.77;;
14754;SDS011;7469;50.906;6.952;2023-06-14T06:53:17;5.93;;;3.40;;
14754;SDS011;7469;50.906;6.952;2023-06-14T06:55:56;6.00;;;3.00;;
14754;SDS011;7469;50.906;6.952;2023-06-14T06:58:24;6.73;;;3.27;;
14754;SDS011;7469;50.906;6.952;2023-06-14T07:00:52;3.47;;;2.60;;
14754;SDS011;7469;50.906;6.952;2023-06-14T07:03:21;7.57;;;3.03;;
14754;SDS011;7469;50.906;6.952;2023-06-14T07:05:49;5.67;;;3.03;;
14754;SDS011;7469;50.906;6.952;2023-06-14T07:08:17;6.43;;;3.37;;
14754;SDS011;7469;50.906;6.952;2023-06-14T07:10:45;3.33;;;2.70;;
14754;SDS011;7469;50.906;6.952;2023-06-14T07:13:13;8.43;;;3.07;;
14754;SDS011;7469;50.906;6.952;2023-06-14T07:15:41;6.60;;;3.20;;
14754;SDS011;7469;50.906;6.952;2023-06-14T07:18:09;5.50;;;2.80;;
14754;SDS011;7469;50.906;6.952;2023-06-14T07:20:42;5.03;;;3.13;;
14754;SDS011;7469;50.906;6.952;2023-06-14T07:23:10;5.93;;;2.93;;
14754;SDS011;7469;50.906;6.952;2023-06-14T07:25:38;3.00;;;2.70;;
14754;SDS011;7469;50.906;6.952;2023-06-14T07:28:06;4.67;;;3.00;;
14754;SDS011;7469;50.906;6.952;2023-06-14T07:30:34;5.73;;;2.73;;
14754;SDS011;7469;50.906;6.952;2023-06-14T07:33:02;7.70;;;2.90;;
14754;SDS011;7469;50.906;6.952;2023-06-14T07:35:31;4.20;;;3.00;;
14754;SDS011;7469;50.906;6.952;2023-06-14T07:38:00;7.17;;;3.07;;
14754;SDS011;7469;50.906;6.952;2023-06-14T07:40:28;4.30;;;2.87;;
14754;SDS011;7469;50.906;6.952;2023-06-14T07:42:56;7.40;;;2.80;;
14754;SDS011;7469;50.906;6.952;2023-06-14T07:45:24;4.40;;;2.90;;
14754;SDS011;7469;50.906;6.952;2023-06-14T07:47:52;3.47;;;2.70;;
14754;SDS011;7469;50.906;6.952;2023-06-14T07:50:20;5.00;;;2.33;;
14754;SDS011;7469;50.906;6.952;2023-06-14T07:52:48;3.03;;;2.20;;
14754;SDS011;7469;50.906;6.952;2023-06-14T07:55:18;4.70;;;2.20;;
14754;SDS011;7469;50.906;6.952;2023-06-14T07:57:45;6.67;;;2.43;;
14754;SDS011;7469;50.906;6.952;2023-06-14T08:00:14;4.70;;;1.83;;
14754;SDS011;7469;50.906;6.952;2023-06-14T08:02:44;5.20;;;2.70;;
14754;SDS011;7469;50.906;6.952;2023-06-14T08:05:12;2.20;;;2.00;;
14754;SDS011;7469;50.906;6.952;2023-06-14T08:07:41;3.47;;;2.10;;
14754;SDS011;7469;50.906;6.952;2023-06-14T08:10:09;5.10;;;2.17;;
14754;SDS011;7469;50.906;6.952;2023-06-14T08:12:38;5.00;;;2.03;;
14754;SDS011;7469;50.906;6.952;2023-06-14T08:15:06;5.60;;;1.97;;
14754;SDS011;7469;50.906;6.952;2023-06-14T08:17:42;1.80;;;1.70;;
14754;SDS011;7469;50.906;6.952;2023-06-14T08:20:11;6.63;;;1.80;;
14754;SDS011;7469;50.906;6.952;2023-06-14T08:22:39;7.57;;;2.20;;
14754;SDS011;7469;50.906;6.952;2023-06-14T08:25:08;2.67;;;2.17;;
14754;SDS011;7469;50.906;6.952;2023-06-14T08:27:38;8.97;;;1.77;;
14754;SDS011;7469;50.906;6.952;2023-06-14T08:30:07;3.30;;;2.00;;
14754;SDS011;7469;50.906;6.952;2023-06-14T08:32:36;8.93;;;2.23;;
14754;SDS011;7469;50.906;6.952;2023-06-14T08:35:04;4.13;;;2.10;;
14754;SDS011;7469;50.906;6.952;2023-06-14T08:37:33;3.37;;;1.73;;
14754;SDS011;7469;50.906;6.952;2023-06-14T08:40:07;3.73;;;1.70;;
14754;SDS011;7469;50.906;6.952;2023-06-14T08:42:47;1.90;;;1.70;;
14754;SDS011;7469;50.906;6.952;2023-06-14T08:45:18;4.87;;;1.97;;
14754;SDS011;7469;50.906;6.952;2023-06-14T08:47:49;3.40;;;1.90;;
14754;SDS011;7469;50.906;6.952;2023-06-14T08:50:19;3.33;;;1.77;;
14754;SDS011;7469;50.906;6.952;2023-06-14T08:52:54;2.00;;;1.80;;
14754;SDS011;7469;50.906;6.952;2023-06-14T08:55:26;2.80;;;1.80;;
14754;SDS011;7469;50.906;6.952;2023-06-14T08:57:57;2.00;;;1.80;;
14754;SDS011;7469;50.906;6.952;2023-06-14T09:00:26;3.90;;;1.87;;
14754;SDS011;7469;50.906;6.952;2023-06-14T09:02:54;4.37;;;1.80;;
14754;SDS011;7469;50.906;6.952;2023-06-14T09:05:24;1.87;;;1.77;;
14754;SDS011;7469;50.906;6.952;2023-06-14T09:07:53;2.43;;;1.63;;
14754;SDS011;7469;50.906;6.952;2023-06-14T09:10:23;3.47;;;1.90;;
14754;SDS011;7469;50.906;6.952;2023-06-14T09:12:53;4.83;;;1.80;;
14754;SDS011;7469;50.906;6.952;2023-06-14T09:15:23;2.60;;;1.87;;
14754;SDS011;7469;50.906;6.952;2023-06-14T09:17:51;2.30;;;2.10;;
14754;SDS011;7469;50.906;6.952;2023-06-14T09:20:20;5.63;;;2.00;;
14754;SDS011;7469;50.906;6.952;2023-06-14T09:22:50;6.47;;;1.87;;
14754;SDS011;7469;50.906;6.952;2023-06-14T09:25:19;6.27;;;2.03;;
14754;SDS011;7469;50.906;6.952;2023-06-14T09:28:06;4.80;;;1.70;;
14754;SDS011;7469;50.906;6.952;2023-06-14T09:30:36;5.50;;;2.00;;
14754;SDS011;7469;50.906;6.952;2023-06-14T09:33:05;2.83;;;1.80;;
14754;SDS011;7469;50.906;6.952;2023-06-14T09:35:33;2.23;;;1.90;;
14754;SDS011;7469;50.906;6.952;2023-06-14T09:38:02;3.17;;;1.90;;
14754;SDS011;7469;50.906;6.952;2023-06-14T09:40:33;2.23;;;2.03;;
14754;SDS011;7469;50.906;6.952;2023-06-14T09:43:04;2.60;;;2.10;;
14754;SDS011;7469;50.906;6.952;2023-06-14T09:45:37;3.00;;;1.90;;
14754;SDS011;7469;50.906;6.952;2023-06-14T09:48:07;4.53;;;2.23;;
14754;SDS011;7469;50.906;6.952;2023-06-14T09:50:36;2.13;;;1.80;;
14754;SDS011;7469;50.906;6.952;2023-06-14T09:53:05;2.00;;;1.90;;
14754;SDS011;7469;50.906;6.952;2023-06-14T09:55:36;1.70;;;1.60;;
14754;SDS011;7469;50.906;6.952;2023-06-14T09:58:06;4.23;;;2.20;;
14754;SDS011;7469;50.906;6.952;2023-06-14T10:00:36;3.83;;;2.00;;
14754;SDS011;7469;50.906;6.952;2023-06-14T10:03:12;2.60;;;2.20;;
14754;SDS011;7469;50.906;6.952;2023-06-14T10:05:43;3.10;;;1.90;;
14754;SDS011;7469;50.906;6.952;2023-06-14T10:08:14;2.27;;;2.07;;
14754;SDS011;7469;50.906;6.952;2023-06-14T10:10:43;1.90;;;1.80;;
14754;SDS011;7469;50.906;6.952;2023-06-14T10:13:12;3.97;;;1.87;;
14754;SDS011;7469;50.906;6.952;2023-06-14T10:15:43;2.57;;;2.10;;
14754;SDS011;7469;50.906;6.952;2023-06-14T10:18:18;3.93;;;2.10;;
14754;SDS011;7469;50.906;6.952;2023-06-14T10:20:55;9.23;;;2.20;;
14754;SDS011;7469;50.906;6.952;2023-06-14T10:23:35;4.43;;;2.05;;
14754;SDS011;7469;50.906;6.952;2023-06-14T10:26:08;2.10;;;2.00;;
14754;SDS011;7469;50.906;6.952;2023-06-14T10:28:44;2.97;;;2.10;;
14754;SDS011;7469;50.906;6.952;2023-06-14T10:31:28;3.37;;;2.30;;
14754;SDS011;7469;50.906;6.952;2023-06-14T10:34:07;4.83;;;1.80;;
14754;SDS011;7469;50.906;6.952;2023-06-14T10:36:36;2.10;;;1.90;;
14754;SDS011;7469;50.906;6.952;2023-06-14T10:39:07;3.63;;;2.00;;
14754;SDS011;7469;50.906;6.952;2023-06-14T10:41:55;4.07;;;2.05;;
14754;SDS011;7469;50.906;6.952;2023-06-14T10:44:34;2.10;;;1.90;;
14754;SDS011;7469;50.906;6.952;2023-06-14T10:47:13;1.90;;;1.80;;
14754;SDS011;7469;50.906;6.952;2023-06-14T10:49:50;1.80;;;1.70;;
14754;SDS011;7469;50.906;6.952;2023-06-14T10:52:25;2.08;;;1.98;;
14754;SDS011;7469;50.906;6.952;2023-06-14T10:54:55;2.03;;;1.83;;
14754;SDS011;7469;50.906;6.952;2023-06-14T10:57:32;3.95;;;2.13;;
14754;SDS011;7469;50.906;6.952;2023-06-14T11:00:17;1.85;;;1.75;;
14754;SDS011;7469;50.906;6.952;2023-06-14T11:05:58;2.15;;;1.73;;
14754;SDS011;7469;50.906;6.952;2023-06-14T11:11:34;2.40;;;1.77;;
14754;SDS011;7469;50.906;6.952;2023-06-14T11:14:04;5.53;;;2.30;;
14754;SDS011;7469;50.906;6.952;2023-06-14T11:16:33;2.10;;;1.70;;
14754;SDS011;7469;50.906;6.952;2023-06-14T11:19:02;1.90;;;1.80;;
14754;SDS011;7469;50.906;6.952;2023-06-14T11:21:32;3.90;;;1.90;;
14754;SDS011;7469;50.906;6.952;2023-06-14T11:24:00;2.40;;;2.10;;
14754;SDS011;7469;50.906;6.952;2023-06-14T11:26:28;3.30;;;2.03;;
14754;SDS011;7469;50.906;6.952;2023-06-14T11:28:58;3.93;;;2.23;;
14754;SDS011;7469;50.906;6.952;2023-06-14T11:31:27;1.87;;;1.77;;
14754;SDS011;7469;50.906;6.952;2023-06-14T11:33:57;3.57;;;1.77;;
14754;SDS011;7469;50.906;6.952;2023-06-14T11:36:27;4.33;;;1.93;;
14754;SDS011;7469;50.906;6.952;2023-06-14T11:38:57;6.57;;;2.40;;
14754;SDS011;7469;50.906;6.952;2023-06-14T11:41:32;23.63;;;4.00;;
14754;SDS011;7469;50.906;6.952;2023-06-14T11:44:01;18.77;;;3.97;;
14754;SDS011;7469;50.906;6.952;2023-06-14T11:46:29;8.23;;;2.20;;
14754;SDS011;7469;50.906;6.952;2023-06-14T11:48:57;4.10;;;1.93;;
14754;SDS011;7469;50.906;6.952;2023-06-14T11:51:30;3.07;;;1.90;;
14754;SDS011;7469;50.906;6.952;2023-06-14T11:54:00;4.93;;;1.87;;
14754;SDS011;7469;50.906;6.952;2023-06-14T11:56:29;3.13;;;1.93;;
14754;SDS011;7469;50.906;6.952;2023-06-14T11:58:58;11.30;;;2.67;;
14754;SDS011;7469;50.906;6.952;2023-06-14T12:01:26;5.17;;;2.20;;
14754;SDS011;7469;50.906;6.952;2023-06-14T12:03:57;5.10;;;2.10;;
14754;SDS011;7469;50.906;6.952;2023-06-14T12:06:28;10.53;;;1.77;;
14754;SDS011;7469;50.906;6.952;2023-06-14T12:09:03;15.83;;;3.43;;
14754;SDS011;7469;50.906;6.952;2023-06-14T12:11:33;3.20;;;1.80;;
14754;SDS011;7469;50.906;6.952;2023-06-14T12:14:03;6.27;;;1.80;;
14754;SDS011;7469;50.906;6.952;2023-06-14T12:16:32;4.60;;;1.70;;
14754;SDS011;7469;50.906;6.952;2023-06-14T12:19:08;4.97;;;2.20;;
14754;SDS011;7469;50.906;6.952;2023-06-14T12:21:42;4.37;;;1.87;;
14754;SDS011;7469;50.906;6.952;2023-06-14T12:24:14;2.13;;;1.70;;
14754;SDS011;7469;50.906;6.952;2023-06-14T12:26:42;3.30;;;2.20;;
14754;SDS011;7469;50.906;6.952;2023-06-14T12:29:10;3.20;;;1.93;;
14754;SDS011;7469;50.906;6.952;2023-06-14T12:31:39;32.67;;;5.07;;
14754;SDS011;7469;50.906;6.952;2023-06-14T12:34:08;3.87;;;1.63;;
14754;SDS011;7469;50.906;6.952;2023-06-14T12:36:37;3.37;;;1.70;;
14754;SDS011;7469;50.906;6.952;2023-06-14T12:39:11;3.40;;;1.63;;
14754;SDS011;7469;50.906;6.952;2023-06-14T12:41:40;3.47;;;1.50;;
14754;SDS011;7469;50.906;6.952;2023-06-14T12:44:08;10.90;;;3.03;;
14754;SDS011;7469;50.906;6.952;2023-06-14T12:46:37;5.53;;;1.90;;
14754;SDS011;7469;50.906;6.952;2023-06-14T12:49:07;25.43;;;4.33;;
14754;SDS011;7469;50.906;6.952;2023-06-14T12:51:35;16.80;;;3.30;;
14754;SDS011;7469;50.906;6.952;2023-06-14T12:54:03;6.43;;;1.53;;
14754;SDS011;7469;50.906;6.952;2023-06-14T12:56:33;20.97;;;3.40;;
14754;SDS011;7469;50.906;6.952;2023-06-14T12:59:01;42.33;;;6.37;;
14754;SDS011;7469;50.906;6.952;2023-06-14T13:01:29;27.97;;;5.33;;
14754;SDS011;7469;50.906;6.952;2023-06-14T13:03:57;19.73;;;4.57;;
14754;SDS011;7469;50.906;6.952;2023-06-14T13:06:25;4.27;;;1.53;;
14754;SDS011;7469;50.906;6.952;2023-06-14T13:08:53;3.97;;;1.60;;
14754;SDS011;7469;50.906;6.952;2023-06-14T13:11:24;5.87;;;1.27;;
14754;SDS011;7469;50.906;6.952;2023-06-14T13:13:53;1.30;;;1.23;;
14754;SDS011;7469;50.906;6.952;2023-06-14T13:16:21;9.40;;;2.50;;
14754;SDS011;7469;50.906;6.952;2023-06-14T13:18:49;5.77;;;1.63;;
14754;SDS011;7469;50.906;6.952;2023-06-14T13:21:17;7.63;;;2.60;;
14754;SDS011;7469;50.906;6.952;2023-06-14T13:23:45;17.30;;;3.00;;
14754;SDS011;7469;50.906;6.952;2023-06-14T13:26:13;12.93;;;2.13;;
14754;SDS011;7469;50.906;6.952;2023-06-14T13:28:41;4.60;;;1.60;;
14754;SDS011;7469;50.906;6.952;2023-06-14T13:31:10;2.33;;;1.40;;
14754;SDS011;7469;50.906;6.952;2023-06-14T13:33:38;3.97;;;1.63;;
14754;SDS011;7469;50.906;6.952;2023-06-14T13:36:06;4.17;;;1.40;;
14754;SDS011;7469;50.906;6.952;2023-06-14T13:38:34;16.53;;;3.13;;
14754;SDS011;7469;50.906;6.952;2023-06-14T13:41:02;5.30;;;1.80;;
14754;SDS011;7469;50.906;6.952;2023-06-14T13:43:30;2.90;;;2.00;;
14754;SDS011;7469;50.906;6.952;2023-06-14T13:45:58;8.93;;;1.90;;
14754;SDS011;7469;50.906;6.952;2023-06-14T13:48:28;5.23;;;1.77;;
14754;SDS011;7469;50.906;6.952;2023-06-14T13:50:56;5.23;;;1.70;;
14754;SDS011;7469;50.906;6.952;2023-06-14T13:53:24;6.73;;;2.27;;
14754;SDS011;7469;50.906;6.952;2023-06-14T13:55:52;2.10;;;2.00;;
14754;SDS011;7469;50.906;6.952;2023-06-14T13:58:20;4.07;;;1.50;;
14754;SDS011;7469;50.906;6.952;2023-06-14T14:00:50;6.57;;;1.97;;
14754;SDS011;7469;50.906;6.952;2023-06-14T14:03:18;3.17;;;1.50;;
14754;SDS011;7469;50.906;6.952;2023-06-14T14:05:48;4.00;;;1.63;;
14754;SDS011;7469;50.906;6.952;2023-06-14T14:08:16;6.33;;;1.97;;
14754;SDS011;7469;50.906;6.952;2023-06-14T14:10:44;12.30;;;2.07;;
14754;SDS011;7469;50.906;6.952;2023-06-14T14:13:12;2.63;;;1.73;;
14754;SDS011;7469;50.906;6.952;2023-06-14T14:15:40;4.93;;;1.90;;
14754;SDS011;7469;50.906;6.952;2023-06-14T14:18:08;2.73;;;1.50;;
14754;SDS011;7469;50.906;6.952;2023-06-14T14:20:36;7.83;;;1.90;;
14754;SDS011;7469;50.906;6.952;2023-06-14T14:23:06;2.87;;;1.83;;
14754;SDS011;7469;50.906;6.952;2023-06-14T14:25:34;18.03;;;2.93;;
14754;SDS011;7469;50.906;6.952;2023-06-14T14:28:02;6.37;;;2.20;;
14754;SDS011;7469;50.906;6.952;2023-06-14T14:30:30;39.30;;;4.63;;
14754;SDS011;7469;50.906;6.952;2023-06-14T14:32:59;3.33;;;1.80;;
14754;SDS011;7469;50.906;6.952;2023-06-14T14:35:27;18.23;;;3.33;;
14754;SDS011;7469;50.906;6.952;2023-06-14T14:37:57;10.27;;;2.60;;
14754;SDS011;7469;50.906;6.952;2023-06-14T14:40:26;8.53;;;2.33;;
14754;SDS011;7469;50.906;6.952;2023-06-14T14:42:54;7.17;;;1.93;;
14754;SDS011;7469;50.906;6.952;2023-06-14T14:45:22;5.40;;;2.37;;
14754;SDS011;7469;50.906;6.952;2023-06-14T14:47:50;5.53;;;2.10;;
14754;SDS011;7469;50.906;6.952;2023-06-14T14:50:21;3.73;;;2.13;;
14754;SDS011;7469;50.906;6.952;2023-06-14T14:52:49;7.50;;;1.90;;
14754;SDS011;7469;50.906;6.952;2023-06-14T14:55:17;3.37;;;1.60;;
14754;SDS011;7469;50.906;6.952;2023-06-14T14:57:47;2.50;;;1.67;;
14754;SDS011;7469;50.906;6.952;2023-06-14T15:00:15;2.17;;;1.70;;
14754;SDS011;7469;50.906;6.952;2023-06-14T15:02:44;3.30;;;1.97;;
14754;SDS011;7469;50.906;6.952;2023-06-14T15:05:12;5.80;;;1.63;;
14754;SDS011;7469;50.906;6.952;2023-06-14T15:07:40;2.60;;;1.60;;
14754;SDS011;7469;50.906;6.952;2023-06-14T15:10:08;1.70;;;1.50;;
14754;SDS011;7469;50.906;6.952;2023-06-14T15:12:36;1.60;;;1.50;;
14754;SDS011;7469;50.906;6.952;2023-06-14T15:15:06;1.60;;;1.50;;
14754;SDS011;7469;50.906;6.952;2023-06-14T15:17:35;2.27;;;1.77;;
14754;SDS011;7469;50.906;6.952;2023-06-14T15:20:04;5.67;;;2.10;;